Keiyumaru — JL6541 — position and weather

sailwx.info

Track history (hours):
 
Tides and Currents Weather Stations Pressure Air Temp Water Temp Dewpoint Dewpoint Depression Visibility Wind Speed Wind Dir Waves Ship Positions

Keiyumaru

Last reported at 2017-Nov-15 08:15 UTC. Time now 2017-Nov-21 19:11 UTC.
Position N 34°52' E 139°49'.

Length 81 m; draft 4.8 m.

Type: Cargo ship. MMSI: 431500561.

Date/timePositionNaut miles runAvg speedWind from/ knotsBaromVisibWave heightAir tempDewpointWater temp
2017-Nov-15 08:15N 34°52' E 139°49'312.7
2017-Nov-15 07:59N 34°55' E 139°46'612.6
2017-Nov-15 07:29N 35°01' E 139°44'612.3
2017-Nov-15 07:00N 35°07' E 139°46'612.7
2017-Nov-15 06:30N 35°13' E 139°46'612.6
2017-Nov-15 06:00N 35°19' E 139°43'611.8
2017-Nov-15 05:30N 35°25' E 139°43'611.0
2017-Nov-15 05:00N 35°23' E 139°50'3 0.4
2017-Nov-14 21:07N 35°21' E 139°54'0 0.6
2017-Nov-14 20:41N 35°22' E 139°54'2 7.5
2017-Nov-14 20:24N 35°23' E 139°51'1 3.1
2017-Nov-14 19:59N 35°24' E 139°50'0 0.0
2017-Nov-14 19:29N 35°24' E 139°50'0 0.0
2017-Nov-14 18:59N 35°24' E 139°50'0 0.0
2017-Nov-14 18:29N 35°24' E 139°50'0 0.0
2017-Nov-14 17:59N 35°24' E 139°50'0 0.0
2017-Nov-14 17:29N 35°24' E 139°50'0 0.0
2017-Nov-14 16:56N 35°24' E 139°50'0 0.1
2017-Nov-14 16:29N 35°24' E 139°50'0 0.0
2017-Nov-14 15:56N 35°24' E 139°50'0 0.0
2017-Nov-14 14:22N 35°24' E 139°50'0 0.0
2017-Nov-14 13:55N 35°24' E 139°50'0 0.0
2017-Nov-14 13:19N 35°24' E 139°50'0 0.0
2017-Nov-14 12:49N 35°24' E 139°50'0 0.0
2017-Nov-14 12:01N 35°24' E 139°50'0 0.0
2017-Nov-14 11:58N 35°24' E 139°50'0 0.0
2017-Nov-14 11:28N 35°24' E 139°50'0 0.0
2017-Nov-14 10:49N 35°24' E 139°50'0 0.0
2017-Nov-14 10:16N 35°24' E 139°50'0 0.0
2017-Nov-14 09:37N 35°24' E 139°50'0 0.0
2017-Nov-14 09:28N 35°24' E 139°50'0 0.0
2017-Nov-14 08:58N 35°24' E 139°50'0 0.0
2017-Nov-14 08:22N 35°24' E 139°50'0 0.0
2017-Nov-14 07:46N 35°24' E 139°50'0 0.1
2017-Nov-14 07:25N 35°24' E 139°50'0 0.1
2017-Nov-14 06:55N 35°24' E 139°50'0 0.1
2017-Nov-14 06:25N 35°24' E 139°50'2 4.0
2017-Nov-14 06:00N 35°24' E 139°48'611.3
2017-Nov-14 05:31N 35°19' E 139°44'611.4
2017-Nov-14 05:00N 35°14' E 139°47'611.3
2017-Nov-14 04:30N 35°08' E 139°47'510.4
2017-Nov-14 04:00N 35°03' E 139°46'611.3
2017-Nov-14 03:30N 34°57' E 139°44'  
2017-Nov-07 08:24N 35°09' E 139°47'511.8
2017-Nov-07 07:58N 35°14' E 139°46'511.9
2017-Nov-07 07:30N 35°19' E 139°43'611.1
2017-Nov-07 07:00N 35°25' E 139°44'510.1
2017-Nov-07 06:30N 35°23' E 139°49'1 2.7
2017-Nov-07 06:00N 35°22' E 139°51'0 0.1
2017-Nov-07 05:30N 35°22' E 139°51'0 0.0
2017-Nov-07 04:54N 35°22' E 139°51'0 0.0
2017-Nov-07 04:30N 35°22' E 139°51'0 0.0
2017-Nov-07 03:51N 35°22' E 139°51'0 0.1
2017-Nov-07 03:21N 35°22' E 139°51'0 0.1
2017-Nov-07 03:00N 35°22' E 139°51'0 0.0
2017-Nov-07 02:30N 35°22' E 139°51'1 2.5
2017-Nov-07 02:00N 35°22' E 139°49'0 0.0
2017-Nov-07 01:30N 35°22' E 139°49'0 0.0
2017-Nov-07 01:01N 35°22' E 139°49'0 0.0
2017-Nov-07 00:31N 35°22' E 139°49'0 0.1
2017-Nov-07 00:01N 35°22' E 139°49'4 7.1
2017-Nov-06 23:31N 35°21' E 139°45'510.8
2017-Nov-06 23:00N 35°16' E 139°47'611.9
2017-Nov-06 22:30N 35°10' E 139°47'  
Track history (hours):
 
Tides and Currents Weather Stations Pressure Air Temp Water Temp Dewpoint Dewpoint Depression Visibility Wind Speed Wind Dir Waves Ship Positions

Keiyumaru

Last reported at 2017-Nov-15 08:15 UTC. Time now 2017-Nov-21 19:11 UTC.
Position N 34°52' E 139°49'.

Length 81 m; draft 4.8 m.

Type: Cargo ship. MMSI: 431500561.

Date/timePositionNaut miles runAvg speedWind from/ knotsBaromVisibWave heightAir tempDewpointWater temp
2017-Nov-15 08:15N 34°52' E 139°49'312.7
2017-Nov-15 07:59N 34°55' E 139°46'612.6
2017-Nov-15 07:29N 35°01' E 139°44'612.3
2017-Nov-15 07:00N 35°07' E 139°46'612.7
2017-Nov-15 06:30N 35°13' E 139°46'612.6
2017-Nov-15 06:00N 35°19' E 139°43'611.8
2017-Nov-15 05:30N 35°25' E 139°43'611.0
2017-Nov-15 05:00N 35°23' E 139°50'3 0.4
2017-Nov-14 21:07N 35°21' E 139°54'0 0.6
2017-Nov-14 20:41N 35°22' E 139°54'2 7.5
2017-Nov-14 20:24N 35°23' E 139°51'1 3.1
2017-Nov-14 19:59N 35°24' E 139°50'0 0.0
2017-Nov-14 19:29N 35°24' E 139°50'0 0.0
2017-Nov-14 18:59N 35°24' E 139°50'0 0.0
2017-Nov-14 18:29N 35°24' E 139°50'0 0.0
2017-Nov-14 17:59N 35°24' E 139°50'0 0.0
2017-Nov-14 17:29N 35°24' E 139°50'0 0.0
2017-Nov-14 16:56N 35°24' E 139°50'0 0.1
2017-Nov-14 16:29N 35°24' E 139°50'0 0.0
2017-Nov-14 15:56N 35°24' E 139°50'0 0.0
2017-Nov-14 14:22N 35°24' E 139°50'0 0.0
2017-Nov-14 13:55N 35°24' E 139°50'0 0.0
2017-Nov-14 13:19N 35°24' E 139°50'0 0.0
2017-Nov-14 12:49N 35°24' E 139°50'0 0.0
2017-Nov-14 12:01N 35°24' E 139°50'0 0.0
2017-Nov-14 11:58N 35°24' E 139°50'0 0.0
2017-Nov-14 11:28N 35°24' E 139°50'0 0.0
2017-Nov-14 10:49N 35°24' E 139°50'0 0.0
2017-Nov-14 10:16N 35°24' E 139°50'0 0.0
2017-Nov-14 09:37N 35°24' E 139°50'0 0.0
2017-Nov-14 09:28N 35°24' E 139°50'0 0.0
2017-Nov-14 08:58N 35°24' E 139°50'0 0.0
2017-Nov-14 08:22N 35°24' E 139°50'0 0.0
2017-Nov-14 07:46N 35°24' E 139°50'0 0.1
2017-Nov-14 07:25N 35°24' E 139°50'0 0.1
2017-Nov-14 06:55N 35°24' E 139°50'0 0.1
2017-Nov-14 06:25N 35°24' E 139°50'2 4.0
2017-Nov-14 06:00N 35°24' E 139°48'611.3
2017-Nov-14 05:31N 35°19' E 139°44'611.4
2017-Nov-14 05:00N 35°14' E 139°47'611.3
2017-Nov-14 04:30N 35°08' E 139°47'510.4
2017-Nov-14 04:00N 35°03' E 139°46'611.3
2017-Nov-14 03:30N 34°57' E 139°44'  
2017-Nov-07 08:24N 35°09' E 139°47'511.8
2017-Nov-07 07:58N 35°14' E 139°46'511.9
2017-Nov-07 07:30N 35°19' E 139°43'611.1
2017-Nov-07 07:00N 35°25' E 139°44'510.1
2017-Nov-07 06:30N 35°23' E 139°49'1 2.7
2017-Nov-07 06:00N 35°22' E 139°51'0 0.1
2017-Nov-07 05:30N 35°22' E 139°51'0 0.0
2017-Nov-07 04:54N 35°22' E 139°51'0 0.0
2017-Nov-07 04:30N 35°22' E 139°51'0 0.0
2017-Nov-07 03:51N 35°22' E 139°51'0 0.1
2017-Nov-07 03:21N 35°22' E 139°51'0 0.1
2017-Nov-07 03:00N 35°22' E 139°51'0 0.0
2017-Nov-07 02:30N 35°22' E 139°51'1 2.5
2017-Nov-07 02:00N 35°22' E 139°49'0 0.0
2017-Nov-07 01:30N 35°22' E 139°49'0 0.0
2017-Nov-07 01:01N 35°22' E 139°49'0 0.0
2017-Nov-07 00:31N 35°22' E 139°49'0 0.1
2017-Nov-07 00:01N 35°22' E 139°49'4 7.1
2017-Nov-06 23:31N 35°21' E 139°45'510.8
2017-Nov-06 23:00N 35°16' E 139°47'611.9
2017-Nov-06 22:30N 35°10' E 139°47'  

Dump ship's entire track history